createdAt,value
2018-10-21T12:20:23.704Z,253.22
2018-10-21T12:22:52.106Z,115.62
2018-10-21T12:25:20.467Z,155.55
2018-10-21T12:27:48.590Z,112.25
2018-10-21T12:30:16.748Z,152.27
2018-10-21T12:32:44.976Z,165.95
2018-10-21T12:35:13.268Z,135.05
2018-10-21T12:37:41.664Z,145.00
2018-10-21T12:40:10.339Z,142.15
2018-10-21T12:42:39.133Z,140.60
2018-10-21T12:45:09.763Z,138.55
2018-10-21T12:47:38.332Z,145.45
2018-10-21T12:50:07.246Z,136.97
2018-10-21T12:52:35.592Z,128.15
2018-10-21T12:55:04.626Z,143.22
2018-10-21T12:57:32.919Z,23.52
2018-10-21T13:00:01.199Z,22.37
2018-10-21T13:02:29.429Z,23.77
2018-10-21T13:04:57.692Z,21.30
2018-10-21T13:07:25.926Z,22.67
2018-10-21T13:09:54.168Z,24.45
2018-10-21T13:12:22.519Z,22.90
2018-10-21T13:14:50.739Z,24.35
2018-10-21T13:17:18.970Z,21.85
2018-10-21T13:19:47.280Z,23.73
2018-10-21T13:22:15.695Z,23.52
2018-10-21T13:24:43.858Z,22.95
2018-10-21T13:27:12.163Z,23.30
2018-10-21T13:29:40.458Z,22.82
2018-10-21T13:32:08.786Z,22.82
2018-10-21T13:34:37.029Z,23.47
2018-10-21T13:37:05.357Z,22.98
2018-10-21T13:39:33.612Z,22.35
2018-10-21T13:42:01.886Z,20.80
2018-10-21T13:44:30.105Z,19.82
2018-10-21T13:46:58.374Z,19.82
2018-10-21T13:49:26.595Z,21.42
2018-10-21T13:51:54.916Z,20.65
2018-10-21T13:54:23.073Z,21.87
2018-10-21T13:56:51.312Z,21.93
2018-10-21T13:59:19.717Z,20.88
2018-10-21T14:01:47.969Z,20.60
2018-10-21T14:04:16.365Z,21.48
2018-10-21T14:06:44.624Z,19.85
2018-10-21T14:09:13.601Z,20.25
2018-10-21T14:11:41.878Z,20.82
2018-10-21T14:14:11.062Z,18.85
2018-10-21T14:16:39.648Z,20.27
2018-10-21T14:19:08.364Z,20.90
2018-10-21T14:21:36.625Z,22.15
2018-10-21T14:24:05.172Z,19.77
2018-10-21T14:26:33.489Z,19.85
2018-10-21T14:29:01.786Z,21.17
2018-10-21T14:31:30.100Z,20.05
2018-10-21T14:33:58.313Z,20.32
2018-10-21T14:36:26.516Z,19.17
2018-10-21T14:38:54.781Z,20.72
2018-10-21T14:41:23.113Z,18.98
2018-10-21T14:43:51.433Z,17.73
2018-10-21T14:46:19.643Z,18.07
2018-10-21T14:48:48.765Z,16.82
2018-10-21T14:51:17.086Z,18.07
2018-10-21T14:53:45.346Z,14.10
2018-10-21T14:56:13.808Z,18.55
2018-10-21T14:58:41.928Z,17.45
2018-10-21T15:01:10.210Z,14.90
2018-10-21T15:03:38.522Z,16.90
2018-10-21T15:06:06.752Z,16.25
2018-10-21T15:08:34.931Z,14.33
2018-10-21T15:11:03.240Z,16.00
2018-10-21T15:13:31.466Z,12.18
2018-10-21T15:15:59.727Z,14.87
2018-10-21T15:18:27.965Z,14.35
2018-10-21T15:20:56.213Z,10.65
2018-10-21T15:23:26.483Z,10.60
2018-10-21T15:25:57.535Z,10.60
2018-10-21T15:28:25.790Z,8.90
2018-10-21T15:30:54.090Z,7.20
2018-10-21T15:33:22.336Z,7.03
2018-10-21T15:35:50.865Z,6.25
2018-10-21T15:38:19.160Z,5.15
2018-10-21T15:40:47.353Z,5.10
2018-10-21T15:43:15.677Z,5.03
2018-10-21T15:45:44.017Z,4.97
2018-10-21T15:48:12.342Z,4.08
2018-10-21T15:50:40.644Z,4.67
2018-10-21T15:53:08.847Z,4.20
2018-10-21T15:55:37.157Z,6.00
2018-10-21T15:58:05.521Z,3.70
2018-10-21T16:00:33.784Z,3.35
2018-10-21T16:03:02.099Z,3.60
2018-10-21T16:05:30.332Z,4.62
2018-10-21T16:07:58.660Z,3.27
2018-10-21T16:10:26.870Z,3.15
2018-10-21T16:12:55.148Z,4.35
2018-10-21T16:15:23.449Z,8.00
2018-10-21T16:17:51.730Z,6.35
2018-10-21T16:20:20.156Z,4.17
2018-10-21T16:22:48.282Z,6.22
2018-10-21T16:25:16.581Z,5.70
2018-10-21T16:27:44.846Z,4.58
2018-10-21T16:30:14.347Z,3.70
2018-10-21T16:32:43.314Z,4.40
2018-10-21T16:35:12.019Z,4.17
2018-10-21T16:37:40.649Z,5.50
2018-10-21T16:40:11.749Z,4.25
2018-10-21T16:42:40.125Z,5.28
2018-10-21T16:45:09.396Z,5.42
2018-10-21T16:47:38.324Z,6.50
2018-10-21T16:50:13.224Z,7.90
2018-10-21T16:52:42.701Z,5.60
2018-10-21T16:55:11.654Z,5.10
2018-10-21T16:57:40.037Z,4.83
2018-10-21T17:00:13.060Z,8.25
2018-10-21T17:02:41.629Z,6.92
2018-10-21T17:05:10.237Z,10.23
2018-10-21T17:07:38.567Z,7.83
2018-10-21T17:10:08.512Z,9.13
2018-10-21T17:12:36.612Z,6.45
2018-10-21T17:15:05.963Z,7.03
2018-10-21T17:17:34.433Z,6.42
2018-10-21T17:20:02.818Z,14.35
2018-10-21T17:22:31.136Z,7.90
2018-10-21T17:24:59.588Z,7.70
2018-10-21T17:27:27.791Z,11.22
2018-10-21T17:29:56.037Z,7.45
2018-10-21T17:32:24.343Z,7.45
2018-10-21T17:34:52.593Z,7.53
2018-10-21T17:37:20.912Z,10.08
2018-10-21T17:39:49.213Z,9.18
2018-10-21T17:42:17.706Z,8.13
2018-10-21T17:44:45.948Z,8.90
2018-10-21T17:47:14.242Z,8.28
2018-10-21T17:49:42.523Z,13.85
2018-10-21T17:52:10.963Z,10.63
2018-10-21T17:54:39.133Z,10.60
2018-10-21T17:57:07.480Z,10.68
2018-10-21T17:59:36.054Z,11.25
2018-10-21T18:02:04.614Z,9.58
2018-10-21T18:04:32.877Z,9.20
2018-10-21T18:07:01.298Z,7.95
2018-10-21T18:09:29.566Z,11.93
2018-10-21T18:11:57.884Z,16.57
2018-10-21T18:14:26.189Z,16.67
2018-10-21T18:16:54.462Z,9.00
2018-10-21T18:19:22.881Z,6.50
2018-10-21T18:21:51.176Z,8.35
2018-10-21T18:24:19.650Z,20.92
2018-10-21T18:26:47.940Z,16.67
2018-10-21T18:29:16.287Z,6.30
2018-10-21T18:31:44.651Z,9.63
2018-10-21T18:34:12.985Z,19.40
2018-10-21T18:36:41.244Z,15.28
2018-10-21T18:39:10.323Z,10.40
2018-10-21T18:41:38.618Z,7.47
2018-10-21T18:44:07.558Z,8.33
2018-10-21T18:46:35.924Z,8.80
2018-10-21T18:49:04.337Z,8.85
2018-10-21T18:51:32.610Z,10.20
2018-10-21T18:54:00.864Z,9.43
2018-10-21T18:56:29.179Z,7.62
2018-10-21T18:58:57.583Z,10.50
2018-10-21T19:01:25.875Z,16.62
2018-10-21T19:03:54.200Z,12.88
2018-10-21T19:06:22.452Z,17.52
2018-10-21T19:08:50.711Z,49.00
2018-10-21T19:11:18.982Z,34.48
2018-10-21T19:13:47.330Z,24.25
2018-10-21T19:16:15.641Z,20.50
2018-10-21T19:18:44.158Z,19.98
2018-10-21T19:21:12.451Z,21.73
2018-10-21T19:23:40.696Z,12.98
2018-10-21T19:26:08.955Z,8.90
2018-10-21T19:28:37.239Z,15.00
2018-10-21T19:31:06.242Z,12.35
2018-10-21T19:33:34.524Z,11.95
2018-10-21T19:36:02.810Z,11.18
2018-10-21T19:38:31.067Z,11.38
2018-10-21T19:40:59.369Z,12.85
2018-10-21T19:43:27.670Z,13.32
2018-10-21T19:45:55.920Z,11.10
2018-10-21T19:48:24.207Z,13.48
2018-10-21T19:50:52.418Z,12.40
2018-10-21T19:53:20.657Z,12.03
2018-10-21T19:55:48.946Z,10.88
2018-10-21T19:58:17.298Z,9.93
2018-10-21T20:00:45.517Z,8.38
2018-10-21T20:03:13.840Z,7.47
2018-10-21T20:05:42.106Z,7.72
2018-10-21T20:08:10.430Z,8.20
2018-10-21T20:10:38.694Z,9.68
2018-10-21T20:13:06.998Z,11.90
2018-10-21T20:15:35.205Z,10.98
2018-10-21T20:18:03.786Z,11.08
2018-10-21T20:20:32.025Z,12.33
2018-10-21T20:23:00.321Z,11.90
2018-10-21T20:25:28.612Z,14.00
2018-10-21T20:27:56.898Z,12.90
2018-10-21T20:30:25.146Z,10.15
2018-10-21T20:32:53.500Z,7.15
2018-10-21T20:35:21.733Z,12.00
2018-10-21T20:37:50.019Z,11.83
2018-10-21T20:40:18.394Z,15.53
2018-10-21T20:42:46.804Z,13.10
2018-10-21T20:45:15.060Z,11.55
2018-10-21T20:47:43.365Z,8.40
2018-10-21T20:50:11.622Z,7.92
2018-10-21T20:52:39.871Z,8.15
2018-10-21T20:55:08.936Z,9.20
2018-10-21T20:57:37.164Z,9.38
2018-10-21T21:00:05.848Z,8.73
2018-10-21T21:02:34.142Z,9.53
2018-10-21T21:05:02.515Z,10.20
2018-10-21T21:07:30.797Z,8.60
2018-10-21T21:09:59.046Z,6.72
2018-10-21T21:12:27.284Z,10.25
2018-10-21T21:14:55.547Z,7.78
2018-10-21T21:17:23.765Z,7.33
2018-10-21T21:19:51.970Z,7.35
2018-10-21T21:22:20.279Z,6.50
2018-10-21T21:24:48.424Z,6.25
2018-10-21T21:27:16.696Z,6.92
2018-10-21T21:29:44.973Z,8.65
2018-10-21T21:32:13.238Z,6.95
2018-10-21T21:34:41.539Z,7.60
2018-10-21T21:37:09.760Z,7.78
2018-10-21T21:39:37.971Z,6.70
2018-10-21T21:42:06.241Z,5.97
2018-10-21T21:44:34.501Z,8.28
2018-10-21T21:47:02.784Z,6.87
2018-10-21T21:49:31.025Z,8.10
2018-10-21T21:51:59.274Z,6.40
2018-10-21T21:54:27.535Z,7.50
2018-10-21T21:56:55.707Z,7.33
2018-10-21T21:59:23.952Z,7.22
2018-10-21T22:01:52.197Z,8.38
2018-10-21T22:04:20.402Z,7.70
2018-10-21T22:06:48.831Z,8.30
2018-10-21T22:09:17.040Z,8.00
2018-10-21T22:11:45.288Z,8.50
2018-10-21T22:14:13.557Z,7.25
2018-10-21T22:16:41.857Z,8.33
2018-10-21T22:19:10.098Z,8.03
2018-10-21T22:21:38.828Z,7.67
2018-10-21T22:24:08.338Z,7.05
2018-10-21T22:26:36.615Z,6.78
2018-10-21T22:29:05.074Z,7.47
2018-10-21T22:31:33.357Z,7.75
2018-10-21T22:34:01.666Z,7.22
2018-10-21T22:36:29.916Z,7.53
2018-10-21T22:38:58.160Z,7.80
2018-10-21T22:41:26.440Z,7.42
2018-10-21T22:43:54.629Z,7.70
2018-10-21T22:46:22.936Z,7.55
2018-10-21T22:48:51.154Z,7.35
2018-10-21T22:51:19.403Z,7.65
2018-10-21T22:53:47.634Z,7.90
2018-10-21T22:56:16.057Z,8.10
2018-10-21T22:58:44.267Z,7.95
2018-10-21T23:01:12.596Z,9.30
2018-10-21T23:03:40.855Z,8.30
2018-10-21T23:06:09.085Z,8.83
2018-10-21T23:08:37.304Z,9.30
2018-10-21T23:11:05.496Z,9.63
2018-10-21T23:13:33.733Z,8.40
2018-10-21T23:16:02.053Z,8.33
2018-10-21T23:18:30.495Z,8.30
2018-10-21T23:20:58.703Z,8.20
2018-10-21T23:23:26.973Z,7.70
2018-10-21T23:25:55.256Z,8.15
2018-10-21T23:28:23.485Z,8.28
2018-10-21T23:30:51.816Z,8.65
2018-10-21T23:33:20.076Z,8.35
2018-10-21T23:35:48.350Z,8.58
2018-10-21T23:38:16.619Z,8.30
2018-10-21T23:40:44.800Z,7.60
2018-10-21T23:43:13.004Z,7.67
2018-10-21T23:45:41.223Z,7.50
2018-10-21T23:48:09.466Z,7.22
2018-10-21T23:50:37.660Z,7.17
2018-10-21T23:53:06.349Z,7.70
2018-10-21T23:55:34.523Z,7.30
2018-10-21T23:58:02.790Z,7.08
